首页
METAR-TAF:

METAR-TAF

机场 :

Brunswick County Airport

Southport, 北卡罗来纳州, 美国

纬度: 33-55-45N, 经度: 078-04-29W, 海拔: 8米

当前天气观测

该预报发布于15分钟前的14:00 UTC
风速6节,风向西转西南
温度 28°C
湿度 74%
气压 1018 hPa
能見度: 16.1公里
天空无云

METAR: KSUT 201400Z AUTO 25006KT 10SM CLR 28/23 A3007 RMK AO2 T02810232

时间: 10:15 (14:15 UTC)


TAF: 丢失

超过4000个机场的气象观测和天气预报(METAR&TAF报告)。

可查询的气象台以黄色和红色小点在地图上表示。

将鼠标移到小点上方,可查看气象台名称。

然后点击查看天气观测和预报。

如需切换地图:点击带黑十字的绿色按钮放大地图;点击带横线的绿色按钮缩小地图;或者点击绿色箭头查看邻近地区的地图。


METAR-TAF: